Aktualne dane pomiarowe

Uwaga, wersja testowa! Automatyczne pobieranie danych za pomocą narzędzi lub skryptów to umożliwiających jest zabronione.

Dane meteo z obszaru Polski uzyskane na podstawie depesz SYNOP pobieranych co godzinę z NWS. Najedź myszką na symbol przedstawiony w tabeli, aby uzyskać informacje co do jego znaczenia. Prosimy pamiętać, że to testowa wersja strony, która jeszcze nie jest ukończona. Stworzono również jest krótki FAQ dotyczący korzystania z tej podstrony Anomalie temperatury w chwili obecnej odniesione są do okresu referencyjnego 1951-2016. Okres ten będzie później zmieniony na 1981-2010. Kliknij ikonę aby pobrać plik CSV. Kliknij ikonę aby wygenerować mapę synoptyczną dla danego terminu.

Wybierz Datę:    

        

Przemyśl (12695)

Dane terminowe dla wybranej stacji. Kliknij datę, aby otrzymać dane z tego terminu dla wszystkich stacji.

TemperaturaZachmurzenieWiatrCiśnienieOpadyPogoda
 Data t td wb tx tn tg rh  Nt Nl Cl Cm Ch ws wd g1 g2 wx mslp ppp ch 24h 12h t ww ww w1 w2  
2019-05-06 23:00:00 4.5 3.6 3.8--- 94---3wx---1011.9 977.8 -0.4---wx-----
2019-05-06 22:00:00 4.5 3.6 3.8--- 94---3wx---1012.5 978.3 0.0---wx-----
2019-05-06 21:00:00 4.5 3.9 4.0--- 96---2----1012.7 978.5 0.0---wx-----
2019-05-06 20:00:00 4.4 4.1 4.1--- 98---2wx---1012.4 978.2 0.0---wx-----
2019-05-06 19:00:00 4.4 3.9 4.0--- 97---0----1012.6 978.5 0.5---------
2019-05-06 18:00:00 4.5 3.8 4.0 5.4 4.2- 95---3----1012.5 978.4 0.7- 13.012wx-----
2019-05-06 17:00:00 4.5 3.7 3.9--- 95---4----1012.4 978.2 1.0---wx-----
2019-05-06 16:00:00 4.5 3.7 3.9--- 95---3----1012.1 978.0 1.5---wx-----
2019-05-06 15:00:00 4.4 3.7 3.9--- 95---2----1011.8 977.6 1.5---wx-----
2019-05-06 14:00:00 4.8 4.1 4.3--- 95---2----1011.3 977.2 1.0---wx-----
2019-05-06 13:00:00 5.2 4.1 4.4--- 93---4----1010.4 976.4 0.2---wx-----
2019-05-06 12:00:00 5.3 4.2 4.5--- 93---5wx---1010.1 976.1 -0.2- 9.06wx-----
2019-05-06 11:00:00 4.8 4.2 4.3--- 96---4----1010.3 976.3 0.2---wx-----
2019-05-06 10:00:00 4.3 3.5 3.7--- 95---3----1010.4 976.3 0.3---wx-----
2019-05-06 09:00:00 4.0 3.3 3.5--- 95---3----1010.4 976.3 0.2---wx-----
2019-05-06 08:00:00 4.2 3.6 3.7--- 96---3----1010.1 976.0 0.3---wx-----
2019-05-06 07:00:00 4.2 3.7 3.8--- 97---3----1010.0 975.9 0.0---wx-----
2019-05-06 06:00:00 4.2 3.7 3.8 9.2 4.2 5 97---3----1010.2 976.0 0.3 17.4 7.012wx---- 0.0
2019-05-06 05:00:00 4.3 3.8 3.9--- 97---2----1009.8 975.7 -0.3---wx-----
2019-05-06 04:00:00 4.4 3.7 3.9--- 95---2----1009.9 975.9 0.0---wx-----
2019-05-06 03:00:00 4.3 3.8 3.9--- 97---3----1009.9 975.8 0.0---wx-----
2019-05-06 02:00:00 4.4 3.8 3.9--- 96---2----1010.1 976.0 -0.2---wx-----
2019-05-06 01:00:00 4.6 4.0 4.1--- 96---3----1010.0 975.9 -0.6---wx-----
2019-05-06 00:00:00 4.8 4.3 4.4--- 97---2----1009.8 975.7 -0.8- 4.06wx-----
2019-05-05 23:00:00 5.1 4.6 4.7--- 97---3----1010.3 976.3 -0.3---wx-----
2019-05-05 22:00:00 5.5 4.9 5.0--- 96---4----1010.4 976.5 0.2---wx-----
2019-05-05 21:00:00 5.9 5.4 5.5--- 97---3----1010.4 976.5 0.6---wx-----
2019-05-05 20:00:00 6.4 5.9 6.0--- 97---4----1010.4 976.6 0.9---wx-----
2019-05-05 19:00:00 6.9 6.4 6.5--- 97---3----1010.1 976.3 1.0---wx-----
2019-05-05 18:00:00 7.4 6.9 7.0 9.2 8.8- 97---3----1009.7 975.9 0.7- 9.012wx-----
2019-05-05 17:00:00 7.5 6.9 7.0--- 96---2----1009.3 975.7 0.7---wx-----
2019-05-05 16:00:00 7.7 7.1 7.2--- 96---2----1009.0 975.3 0.2---wx-----
2019-05-05 15:00:00 7.9 7.5 7.6--- 97---4----1008.8 975.2 0.2---wx-----
2019-05-05 14:00:00 7.9 7.4 7.5--- 97---4wx---1008.6 975.0 0.3---wx-----
2019-05-05 13:00:00 8.1 7.6 7.7--- 97---4----1008.7 975.1 0.7---wx-----
2019-05-05 12:00:00 8.0 7.5 7.6--- 97---3----1008.6 975.0 0.6- 5.06wx-----
2019-05-05 11:00:00 8.1 7.6 7.7--- 97---4wx---1008.3 974.7 0.7---wx-----
2019-05-05 10:00:00 9.1 8.7 8.8--- 97---3----1007.9 974.4 0.7---wx-----
2019-05-05 09:00:00 8.8 8.4 8.5--- 97---3----1007.9 974.4 1.0---wx-----
2019-05-05 08:00:00 9.1 8.7 8.8--- 97---1----1007.4 974.0 0.9---wx-----
2019-05-05 07:00:00 8.7 8.2 8.3--- 97---2----1007.1 973.7 1.2---wx-----
2019-05-05 06:00:00 9.0 8.2 8.4 12.4 8.8 9 95---2----1006.8 973.3 1.4 6.8 0.012wx---- 2.2
2019-05-05 05:00:00 9.0 8.9 8.9--- 99---1----1006.5 973.1 0.8---wx-----
2019-05-05 04:00:00 8.8 8.7 8.7--- 99---1wx---1005.8 972.4 0.5---wx-----
2019-05-05 03:00:00 8.9 8.6 8.6--- 98---1wx---1005.4 972.0 0.4---wx-----
2019-05-05 02:00:00 9.1 8.9 8.9--- 99---0----1005.7 972.3 0.4---wx-----
2019-05-05 01:00:00 9.0 8.9 8.9--- 99---0----1005.3 971.9 -0.2---wx-----
2019-05-05 00:00:00 9.0 8.8 8.8--- 99---0----1004.9 971.5 -1.0---wx-----
2.3 ms

 

Print Friendly, PDF & Email